createdAt,value
2019-05-05T00:04:39.428Z,99.90
2019-05-05T00:09:45.001Z,99.90
2019-05-05T00:14:58.433Z,99.90
2019-05-05T00:20:02.147Z,99.90
2019-05-05T00:25:06.162Z,99.90
2019-05-05T00:30:10.026Z,99.90
2019-05-05T00:35:14.850Z,99.90
2019-05-05T00:40:18.686Z,99.90
2019-05-05T00:45:22.575Z,99.90
2019-05-05T00:50:26.535Z,99.90
2019-05-05T00:55:30.499Z,99.90
2019-05-05T01:00:52.065Z,99.90
2019-05-05T01:06:08.031Z,99.90
2019-05-05T01:11:11.886Z,99.90
2019-05-05T01:16:15.587Z,99.90
2019-05-05T01:21:19.309Z,99.90
2019-05-05T01:26:24.829Z,99.90
2019-05-05T01:31:28.762Z,99.90
2019-05-05T01:36:34.412Z,99.90
2019-05-05T01:41:41.608Z,99.90
2019-05-05T01:46:45.323Z,99.90
2019-05-05T01:51:49.040Z,99.90
2019-05-05T01:56:55.118Z,99.90
2019-05-05T02:01:58.325Z,99.90
2019-05-05T02:07:02.018Z,99.90
2019-05-05T02:12:05.897Z,99.90
2019-05-05T02:17:09.691Z,99.90
2019-05-05T02:22:14.698Z,99.90
2019-05-05T02:27:19.817Z,99.90
2019-05-05T02:32:36.176Z,99.90
2019-05-05T02:37:40.192Z,99.90
2019-05-05T02:42:45.752Z,99.90
2019-05-05T02:48:08.080Z,99.90
2019-05-05T02:53:11.935Z,99.90
2019-05-05T02:58:15.643Z,99.90
2019-05-05T03:03:19.503Z,99.90
2019-05-05T03:08:24.310Z,99.90
2019-05-05T03:13:31.108Z,99.90
2019-05-05T03:18:35.046Z,99.90
2019-05-05T03:23:38.958Z,99.90
2019-05-05T03:28:46.447Z,99.90
2019-05-05T03:33:50.734Z,99.90
2019-05-05T03:38:55.522Z,99.90
2019-05-05T03:44:04.738Z,99.90
2019-05-05T03:49:08.955Z,99.90
2019-05-05T03:54:14.622Z,99.90
2019-05-05T03:59:18.925Z,99.90
2019-05-05T04:04:24.728Z,99.90
2019-05-05T04:09:28.838Z,99.90
2019-05-05T04:14:34.790Z,99.90
2019-05-05T04:19:41.234Z,99.90
2019-05-05T04:24:44.943Z,99.90
2019-05-05T04:29:48.656Z,99.90
2019-05-05T04:34:54.341Z,98.80
2019-05-05T04:39:58.166Z,96.10
2019-05-05T04:45:04.113Z,94.70
2019-05-05T04:50:24.020Z,94.00
2019-05-05T04:55:27.717Z,93.60
2019-05-05T05:00:31.421Z,93.70
2019-05-05T05:05:56.423Z,93.30
2019-05-05T05:11:00.371Z,93.70
2019-05-05T05:16:04.586Z,94.30
2019-05-05T05:21:08.382Z,95.00
2019-05-05T05:26:13.866Z,96.00
2019-05-05T05:31:17.754Z,97.10
2019-05-05T05:36:21.447Z,98.40
2019-05-05T05:41:44.779Z,98.90
2019-05-05T05:46:54.618Z,99.30
2019-05-05T05:52:12.112Z,99.90
2019-05-05T05:57:04.413Z,99.90
2019-05-05T06:02:12.218Z,99.90
2019-05-05T06:07:14.233Z,99.90
2019-05-05T06:12:18.415Z,99.90
2019-05-05T06:17:23.768Z,99.90
2019-05-05T06:22:30.975Z,99.70
2019-05-05T06:27:34.214Z,99.30
2019-05-05T06:32:38.118Z,98.20
2019-05-05T06:37:54.276Z,97.60
2019-05-05T06:43:08.154Z,95.80
2019-05-05T06:48:13.568Z,93.50
2019-05-05T06:53:17.389Z,94.20
2019-05-05T06:58:21.100Z,93.80
2019-05-05T07:03:24.800Z,91.60
2019-05-05T07:08:28.495Z,90.30
2019-05-05T07:13:33.951Z,83.80
2019-05-05T07:18:37.781Z,87.00
2019-05-05T07:23:41.844Z,80.00
2019-05-05T07:28:45.603Z,84.40
2019-05-05T07:33:49.499Z,77.30
2019-05-05T07:38:54.753Z,84.50
2019-05-05T07:43:58.587Z,77.70
2019-05-05T07:49:03.910Z,79.40
2019-05-05T07:54:07.880Z,71.90
2019-05-05T07:59:11.609Z,70.40
2019-05-05T08:04:15.439Z,72.20
2019-05-05T08:09:21.787Z,77.40
2019-05-05T08:14:24.737Z,73.00
2019-05-05T08:19:47.509Z,71.80
2019-05-05T08:25:08.824Z,77.10
2019-05-05T08:30:20.631Z,72.30
2019-05-05T08:35:24.327Z,68.00
2019-05-05T08:40:28.063Z,70.10
2019-05-05T08:45:31.891Z,58.00
2019-05-05T08:50:35.679Z,57.20
2019-05-05T08:55:39.435Z,65.70
2019-05-05T09:00:44.396Z,78.30
2019-05-05T09:05:48.493Z,66.20
2019-05-05T09:10:55.045Z,65.00
2019-05-05T09:15:57.775Z,62.70
2019-05-05T09:21:01.635Z,60.30
2019-05-05T09:26:26.496Z,47.90
2019-05-05T09:31:30.194Z,52.90
2019-05-05T09:36:34.852Z,57.50
2019-05-05T09:41:39.040Z,63.80
2019-05-05T09:46:44.638Z,53.60
2019-05-05T09:51:48.511Z,55.50
2019-05-05T09:56:53.806Z,58.50
2019-05-05T10:01:57.771Z,63.30
2019-05-05T10:07:01.515Z,56.80
2019-05-05T10:12:05.499Z,60.70
2019-05-05T10:17:09.215Z,52.40
2019-05-05T10:22:14.788Z,49.20
2019-05-05T10:27:18.527Z,62.00
2019-05-05T10:32:24.342Z,69.50
2019-05-05T10:37:28.532Z,70.70
2019-05-05T10:42:50.587Z,73.50
2019-05-05T10:47:54.630Z,70.40
2019-05-05T10:52:58.497Z,71.70
2019-05-05T10:58:02.413Z,70.10
2019-05-05T11:03:06.207Z,68.80
2019-05-05T11:08:10.108Z,63.90
2019-05-05T11:13:13.856Z,67.20
2019-05-05T11:18:17.643Z,59.00
2019-05-05T11:23:21.407Z,65.00
2019-05-05T11:28:25.491Z,66.50
2019-05-05T11:33:35.675Z,63.10
2019-05-05T11:38:41.423Z,50.00
2019-05-05T11:43:45.179Z,46.70
2019-05-05T11:48:49.003Z,49.80
2019-05-05T11:53:54.057Z,65.30
2019-05-05T11:58:58.078Z,66.00
2019-05-05T12:04:04.041Z,60.70
2019-05-05T12:09:15.823Z,60.30
2019-05-05T12:14:25.065Z,56.30
2019-05-05T12:19:27.551Z,64.20
2019-05-05T12:24:34.455Z,59.50
2019-05-05T12:29:48.834Z,51.40
2019-05-05T12:34:53.791Z,54.50
2019-05-05T12:39:57.721Z,51.10
2019-05-05T12:45:04.748Z,50.00
2019-05-05T12:50:08.955Z,51.00
2019-05-05T12:55:14.298Z,49.20
2019-05-05T13:00:19.606Z,53.60
2019-05-05T13:05:23.727Z,60.50
2019-05-05T13:10:27.699Z,60.10
2019-05-05T13:15:35.091Z,62.70
2019-05-05T13:20:53.698Z,52.10
2019-05-05T13:26:05.350Z,51.20
2019-05-05T13:31:09.387Z,55.20
2019-05-05T13:36:13.773Z,51.50
2019-05-05T13:41:19.775Z,52.80
2019-05-05T13:46:26.332Z,51.80
2019-05-05T13:51:30.366Z,54.80
2019-05-05T13:56:34.357Z,51.70
2019-05-05T14:01:38.384Z,45.60
2019-05-05T14:06:44.019Z,39.60
2019-05-05T14:11:47.957Z,37.60
2019-05-05T14:17:01.514Z,41.40
2019-05-05T14:22:07.088Z,49.60
2019-05-05T14:27:11.324Z,52.50
2019-05-05T14:32:19.488Z,53.10
2019-05-05T14:37:53.489Z,51.40
2019-05-05T14:42:57.711Z,51.90
2019-05-05T14:48:01.475Z,43.60
2019-05-05T14:53:24.850Z,47.50
2019-05-05T14:58:28.606Z,41.00
2019-05-05T15:03:34.223Z,43.00
2019-05-05T15:08:54.439Z,38.50
2019-05-05T15:14:00.681Z,39.30
2019-05-05T15:19:06.402Z,41.70
2019-05-05T15:24:13.999Z,43.60
2019-05-05T15:29:18.095Z,44.30
2019-05-05T15:34:24.032Z,47.50
2019-05-05T15:39:30.256Z,50.60
2019-05-05T15:44:34.485Z,52.20
2019-05-05T15:49:38.679Z,50.30
2019-05-05T15:54:44.470Z,43.60
2019-05-05T15:59:48.076Z,40.30
2019-05-05T16:04:53.943Z,44.40
2019-05-05T16:09:57.505Z,48.20
2019-05-05T16:15:26.935Z,47.00
2019-05-05T16:20:35.874Z,48.90
2019-05-05T16:25:41.687Z,48.20
2019-05-05T16:30:45.167Z,43.10
2019-05-05T16:35:48.998Z,46.30
2019-05-05T16:40:53.821Z,43.20
2019-05-05T16:45:57.679Z,46.90
2019-05-05T16:51:03.289Z,46.10
2019-05-05T16:56:09.985Z,47.70
2019-05-05T17:01:15.295Z,48.20
2019-05-05T17:06:19.097Z,46.80
2019-05-05T17:11:24.578Z,50.20
2019-05-05T17:16:50.307Z,51.60
2019-05-05T17:22:25.840Z,51.90
2019-05-05T17:27:29.795Z,54.20
2019-05-05T17:32:34.504Z,54.60
2019-05-05T17:37:38.573Z,56.20
2019-05-05T17:42:58.862Z,57.70
2019-05-05T17:48:16.292Z,58.50
2019-05-05T17:53:26.823Z,57.20
2019-05-05T17:58:30.599Z,59.70
2019-05-05T18:03:34.333Z,63.70
2019-05-05T18:09:06.347Z,65.10
2019-05-05T18:14:15.370Z,60.10
2019-05-05T18:19:19.191Z,57.40
2019-05-05T18:24:24.285Z,58.90
2019-05-05T18:29:28.675Z,60.90
2019-05-05T18:34:32.459Z,63.60
2019-05-05T18:39:36.266Z,68.80
2019-05-05T18:44:44.363Z,70.00
2019-05-05T18:49:48.403Z,73.30
2019-05-05T18:54:54.218Z,74.20
2019-05-05T18:59:57.619Z,76.10
2019-05-05T19:05:23.743Z,79.00
2019-05-05T19:10:27.848Z,82.00
2019-05-05T19:15:31.887Z,84.20
2019-05-05T19:20:54.153Z,85.90
2019-05-05T19:25:58.032Z,87.10
2019-05-05T19:31:04.304Z,88.90
2019-05-05T19:36:08.255Z,90.00
2019-05-05T19:41:14.267Z,90.50
2019-05-05T19:46:18.744Z,90.70
2019-05-05T19:51:23.950Z,90.80
2019-05-05T19:56:28.746Z,91.10
2019-05-05T20:01:37.527Z,91.60
2019-05-05T20:06:39.068Z,91.90
2019-05-05T20:11:43.972Z,92.20
2019-05-05T20:17:07.372Z,92.80
2019-05-05T20:22:11.264Z,92.90
2019-05-05T20:27:15.410Z,93.30
2019-05-05T20:32:24.908Z,93.30
2019-05-05T20:37:37.606Z,92.90
2019-05-05T20:42:41.688Z,91.70
2019-05-05T20:47:45.501Z,90.90
2019-05-05T20:52:49.856Z,90.40
2019-05-05T20:57:54.107Z,90.40
2019-05-05T21:02:58.187Z,89.90
2019-05-05T21:08:04.490Z,89.90
2019-05-05T21:13:08.063Z,89.90
2019-05-05T21:18:11.824Z,89.90
2019-05-05T21:23:34.179Z,90.10
2019-05-05T21:28:38.300Z,90.70
2019-05-05T21:33:42.663Z,91.30
2019-05-05T21:38:46.900Z,92.10
2019-05-05T21:43:51.122Z,92.50
2019-05-05T21:48:55.359Z,93.10
2019-05-05T21:54:24.484Z,92.80
2019-05-05T21:59:28.452Z,92.70
2019-05-05T22:04:33.770Z,92.80
2019-05-05T22:09:38.411Z,93.10
2019-05-05T22:14:43.946Z,93.20
2019-05-05T22:19:57.330Z,93.50
2019-05-05T22:25:03.551Z,94.10
2019-05-05T22:30:09.877Z,94.50
2019-05-05T22:35:13.989Z,95.10
2019-05-05T22:40:20.913Z,96.00
2019-05-05T22:45:24.901Z,96.60
2019-05-05T22:50:33.933Z,97.20
2019-05-05T22:55:37.043Z,97.80
2019-05-05T23:00:40.804Z,98.00
2019-05-05T23:05:50.252Z,98.30
2019-05-05T23:10:54.507Z,98.60
2019-05-05T23:16:05.501Z,99.60
2019-05-05T23:21:30.958Z,99.30
2019-05-05T23:26:36.648Z,99.40
2019-05-05T23:31:40.369Z,99.70
2019-05-05T23:36:44.391Z,99.90
2019-05-05T23:41:48.230Z,99.90
2019-05-05T23:46:53.789Z,99.90
2019-05-05T23:51:57.480Z,99.90
2019-05-05T23:57:01.448Z,99.90
